sensor_id;sensor_type;location;lat;lon;timestamp;pressure;altitude;pressure_sealevel;temperature;humidity
47260;BME280;32999;52.412;4.890;2022-07-09T00:00:37;102828.84;;;18.83;100.00
47260;BME280;32999;52.412;4.890;2022-07-09T00:05:40;102783.13;;;18.59;100.00
47260;BME280;32999;52.412;4.890;2022-07-09T00:10:41;102864.22;;;18.96;100.00
47260;BME280;32999;52.412;4.890;2022-07-09T00:15:54;102877.88;;;19.10;100.00
47260;BME280;32999;52.412;4.890;2022-07-09T00:20:57;102869.56;;;19.11;100.00
47260;BME280;32999;52.412;4.890;2022-07-09T00:25:59;102842.06;;;18.93;100.00
47260;BME280;32999;52.412;4.890;2022-07-09T00:31:01;102843.94;;;18.92;100.00
47260;BME280;32999;52.412;4.890;2022-07-09T00:36:09;102871.16;;;19.06;100.00
47260;BME280;32999;52.412;4.890;2022-07-09T00:41:10;102860.47;;;18.97;100.00
47260;BME280;32999;52.412;4.890;2022-07-09T00:46:12;102864.34;;;19.10;100.00
47260;BME280;32999;52.412;4.890;2022-07-09T00:51:17;102832.34;;;18.77;100.00
47260;BME280;32999;52.412;4.890;2022-07-09T00:56:19;102858.69;;;19.05;100.00
47260;BME280;32999;52.412;4.890;2022-07-09T01:01:24;102851.81;;;19.09;100.00
47260;BME280;32999;52.412;4.890;2022-07-09T01:06:32;102846.16;;;19.03;100.00
47260;BME280;32999;52.412;4.890;2022-07-09T01:11:35;102837.00;;;19.05;100.00
47260;BME280;32999;52.412;4.890;2022-07-09T01:16:37;102735.94;;;18.47;100.00
47260;BME280;32999;52.412;4.890;2022-07-09T01:21:40;102830.94;;;19.02;100.00
47260;BME280;32999;52.412;4.890;2022-07-09T01:27:06;102832.72;;;18.95;100.00
47260;BME280;32999;52.412;4.890;2022-07-09T01:32:08;102828.22;;;19.02;100.00
47260;BME280;32999;52.412;4.890;2022-07-09T01:37:14;102744.22;;;18.60;100.00
47260;BME280;32999;52.412;4.890;2022-07-09T01:42:15;102733.13;;;18.55;100.00
47260;BME280;32999;52.412;4.890;2022-07-09T01:47:17;102762.75;;;19.06;100.00
47260;BME280;32999;52.412;4.890;2022-07-09T01:52:21;102734.41;;;19.01;100.00
47260;BME280;32999;52.412;4.890;2022-07-09T01:57:23;102820.41;;;19.63;100.00
47260;BME280;32999;52.412;4.890;2022-07-09T02:02:25;102819.59;;;19.69;100.00
47260;BME280;32999;52.412;4.890;2022-07-09T02:07:45;102793.06;;;19.65;100.00
47260;BME280;32999;52.412;4.890;2022-07-09T02:12:47;102816.16;;;19.89;100.00
47260;BME280;32999;52.412;4.890;2022-07-09T02:17:49;102761.41;;;19.72;100.00
47260;BME280;32999;52.412;4.890;2022-07-09T02:22:52;102779.69;;;19.98;100.00
47260;BME280;32999;52.412;4.890;2022-07-09T02:28:00;102806.88;;;20.11;100.00
47260;BME280;32999;52.412;4.890;2022-07-09T02:33:02;102806.28;;;20.16;100.00
47260;BME280;32999;52.412;4.890;2022-07-09T02:38:05;102722.28;;;19.53;100.00
47260;BME280;32999;52.412;4.890;2022-07-09T02:43:06;102741.47;;;19.58;100.00
47260;BME280;32999;52.412;4.890;2022-07-09T02:48:08;102791.69;;;19.82;100.00
47260;BME280;32999;52.412;4.890;2022-07-09T02:53:13;102770.19;;;19.46;100.00
47260;BME280;32999;52.412;4.890;2022-07-09T02:58:18;102788.78;;;19.49;100.00
47260;BME280;32999;52.412;4.890;2022-07-09T03:03:20;102758.75;;;19.23;100.00
47260;BME280;32999;52.412;4.890;2022-07-09T03:08:25;102790.56;;;19.14;100.00
47260;BME280;32999;52.412;4.890;2022-07-09T03:13:30;102756.78;;;18.89;100.00
47260;BME280;32999;52.412;4.890;2022-07-09T03:18:34;102783.31;;;18.93;100.00
47260;BME280;32999;52.412;4.890;2022-07-09T03:23:39;102702.88;;;18.30;100.00
47260;BME280;32999;52.412;4.890;2022-07-09T03:28:40;102696.16;;;18.26;100.00
47260;BME280;32999;52.412;4.890;2022-07-09T03:33:42;102783.19;;;18.80;100.00
47260;BME280;32999;52.412;4.890;2022-07-09T03:38:45;102790.53;;;18.86;100.00
47260;BME280;32999;52.412;4.890;2022-07-09T03:43:47;102734.16;;;18.75;100.00
47260;BME280;32999;52.412;4.890;2022-07-09T03:48:49;102773.84;;;19.11;100.00
47260;BME280;32999;52.412;4.890;2022-07-09T03:54:04;102712.13;;;18.78;100.00
47260;BME280;32999;52.412;4.890;2022-07-09T03:59:06;102700.41;;;18.56;100.00
47260;BME280;32999;52.412;4.890;2022-07-09T04:04:10;102768.59;;;19.02;100.00
47260;BME280;32999;52.412;4.890;2022-07-09T04:09:13;102749.13;;;19.20;100.00
47260;BME280;32999;52.412;4.890;2022-07-09T04:14:14;102747.59;;;19.39;100.00
47260;BME280;32999;52.412;4.890;2022-07-09T04:19:16;102653.03;;;18.95;100.00
47260;BME280;32999;52.412;4.890;2022-07-09T04:24:19;102622.53;;;18.86;100.00
47260;BME280;32999;52.412;4.890;2022-07-09T04:29:23;102733.91;;;19.88;100.00
47260;BME280;32999;52.412;4.890;2022-07-09T04:34:26;102736.72;;;20.01;100.00
47260;BME280;32999;52.412;4.890;2022-07-09T04:39:29;102643.88;;;19.65;100.00
47260;BME280;32999;52.412;4.890;2022-07-09T04:44:30;102737.81;;;20.20;100.00
47260;BME280;32999;52.412;4.890;2022-07-09T04:49:32;102627.44;;;19.73;100.00
47260;BME280;32999;52.412;4.890;2022-07-09T04:54:35;102632.84;;;19.80;100.00
47260;BME280;32999;52.412;4.890;2022-07-09T04:59:41;102718.69;;;20.42;100.00
47260;BME280;32999;52.412;4.890;2022-07-09T05:04:42;102618.69;;;19.91;100.00
47260;BME280;32999;52.412;4.890;2022-07-09T05:09:45;102666.13;;;20.01;100.00
47260;BME280;32999;52.412;4.890;2022-07-09T05:14:47;102638.56;;;20.04;100.00
47260;BME280;32999;52.412;4.890;2022-07-09T05:19:49;102734.59;;;20.84;100.00
47260;BME280;32999;52.412;4.890;2022-07-09T05:24:52;102726.69;;;21.02;100.00
47260;BME280;32999;52.412;4.890;2022-07-09T05:29:54;102753.03;;;21.22;100.00
47260;BME280;32999;52.412;4.890;2022-07-09T05:34:56;102731.50;;;21.27;100.00
47260;BME280;32999;52.412;4.890;2022-07-09T05:39:59;102718.31;;;20.97;100.00
47260;BME280;32999;52.412;4.890;2022-07-09T05:45:06;102745.94;;;21.21;100.00
47260;BME280;32999;52.412;4.890;2022-07-09T05:50:08;102751.13;;;21.35;100.00
47260;BME280;32999;52.412;4.890;2022-07-09T05:55:11;102713.09;;;21.22;100.00
47260;BME280;32999;52.412;4.890;2022-07-09T06:00:14;102654.91;;;21.03;100.00
47260;BME280;32999;52.412;4.890;2022-07-09T06:05:16;102728.47;;;21.61;100.00
47260;BME280;32999;52.412;4.890;2022-07-09T06:10:21;102738.84;;;21.91;100.00
47260;BME280;32999;52.412;4.890;2022-07-09T06:15:23;102738.41;;;21.94;100.00
47260;BME280;32999;52.412;4.890;2022-07-09T06:20:24;102731.78;;;21.77;100.00
47260;BME280;32999;52.412;4.890;2022-07-09T06:25:27;102732.66;;;21.64;100.00
47260;BME280;32999;52.412;4.890;2022-07-09T06:30:29;102598.00;;;21.28;100.00
47260;BME280;32999;52.412;4.890;2022-07-09T06:35:31;102748.31;;;22.33;100.00
47260;BME280;32999;52.412;4.890;2022-07-09T06:40:34;102757.13;;;22.28;100.00
47260;BME280;32999;52.412;4.890;2022-07-09T06:45:35;102737.28;;;22.53;100.00
47260;BME280;32999;52.412;4.890;2022-07-09T06:50:37;102768.41;;;22.38;100.00
47260;BME280;32999;52.412;4.890;2022-07-09T06:55:40;102777.81;;;22.43;100.00
47260;BME280;32999;52.412;4.890;2022-07-09T07:00:43;102780.13;;;22.39;100.00
47260;BME280;32999;52.412;4.890;2022-07-09T07:05:45;102712.63;;;22.03;100.00
47260;BME280;32999;52.412;4.890;2022-07-09T07:10:48;102680.66;;;21.85;100.00
47260;BME280;32999;52.412;4.890;2022-07-09T07:15:49;102768.16;;;22.47;100.00
47260;BME280;32999;52.412;4.890;2022-07-09T07:20:51;102759.13;;;22.46;100.00
47260;BME280;32999;52.412;4.890;2022-07-09T07:25:54;102683.84;;;22.20;100.00
47260;BME280;32999;52.412;4.890;2022-07-09T07:30:56;102731.00;;;22.77;100.00
47260;BME280;32999;52.412;4.890;2022-07-09T07:35:58;102683.69;;;22.47;100.00
47260;BME280;32999;52.412;4.890;2022-07-09T07:41:02;102760.69;;;22.98;100.00
47260;BME280;32999;52.412;4.890;2022-07-09T07:46:04;102759.50;;;23.13;100.00
47260;BME280;32999;52.412;4.890;2022-07-09T07:51:05;102778.53;;;22.94;100.00
47260;BME280;32999;52.412;4.890;2022-07-09T07:56:08;102778.09;;;22.97;100.00
47260;BME280;32999;52.412;4.890;2022-07-09T08:01:10;102762.44;;;23.11;100.00
47260;BME280;32999;52.412;4.890;2022-07-09T08:06:12;102712.78;;;23.02;100.00
47260;BME280;32999;52.412;4.890;2022-07-09T08:11:15;102724.44;;;22.91;100.00
47260;BME280;32999;52.412;4.890;2022-07-09T08:16:17;102759.31;;;23.32;100.00
47260;BME280;32999;52.412;4.890;2022-07-09T08:21:19;102767.44;;;23.39;100.00
47260;BME280;32999;52.412;4.890;2022-07-09T08:26:23;102770.69;;;23.72;100.00
47260;BME280;32999;52.412;4.890;2022-07-09T08:31:26;102701.28;;;23.44;100.00
47260;BME280;32999;52.412;4.890;2022-07-09T08:36:28;102751.38;;;24.04;100.00
47260;BME280;32999;52.412;4.890;2022-07-09T08:41:32;102749.56;;;24.16;100.00
47260;BME280;32999;52.412;4.890;2022-07-09T08:46:37;102746.59;;;24.18;100.00
47260;BME280;32999;52.412;4.890;2022-07-09T08:51:43;102760.06;;;23.83;100.00
47260;BME280;32999;52.412;4.890;2022-07-09T08:56:52;102754.75;;;24.24;100.00
47260;BME280;32999;52.412;4.890;2022-07-09T09:01:55;102668.28;;;24.12;100.00
47260;BME280;32999;52.412;4.890;2022-07-09T09:07:12;102761.81;;;24.85;100.00
47260;BME280;32999;52.412;4.890;2022-07-09T09:12:26;102761.66;;;24.98;100.00
47260;BME280;32999;52.412;4.890;2022-07-09T09:17:41;102757.25;;;24.97;100.00
47260;BME280;32999;52.412;4.890;2022-07-09T09:22:45;102733.41;;;24.74;100.00
47260;BME280;32999;52.412;4.890;2022-07-09T09:28:00;102702.50;;;24.14;100.00
47260;BME280;32999;52.412;4.890;2022-07-09T09:33:03;102750.97;;;23.89;100.00
47260;BME280;32999;52.412;4.890;2022-07-09T09:38:10;102770.97;;;24.01;100.00
47260;BME280;32999;52.412;4.890;2022-07-09T09:43:25;102776.63;;;23.69;100.00
47260;BME280;32999;52.412;4.890;2022-07-09T09:48:29;102772.88;;;23.21;100.00
47260;BME280;32999;52.412;4.890;2022-07-09T09:53:32;102690.41;;;23.00;100.00
47260;BME280;32999;52.412;4.890;2022-07-09T09:58:35;102763.53;;;25.33;100.00
47260;BME280;32999;52.412;4.890;2022-07-09T10:03:39;102788.22;;;26.08;100.00
47260;BME280;32999;52.412;4.890;2022-07-09T10:08:43;102793.78;;;25.38;100.00
47260;BME280;32999;52.412;4.890;2022-07-09T10:13:57;102790.91;;;25.91;100.00
47260;BME280;32999;52.412;4.890;2022-07-09T10:18:59;102788.28;;;25.61;100.00
47260;BME280;32999;52.412;4.890;2022-07-09T10:24:09;102797.00;;;26.62;100.00
47260;BME280;32999;52.412;4.890;2022-07-09T10:29:32;102795.91;;;28.02;94.79
47260;BME280;32999;52.412;4.890;2022-07-09T10:34:53;102794.41;;;27.17;95.63
47260;BME280;32999;52.412;4.890;2022-07-09T10:40:09;102799.94;;;28.38;100.00
47260;BME280;32999;52.412;4.890;2022-07-09T10:45:23;102803.94;;;26.53;98.97
47260;BME280;32999;52.412;4.890;2022-07-09T10:50:35;102810.69;;;26.33;98.03
47260;BME280;32999;52.412;4.890;2022-07-09T10:55:38;102800.03;;;28.48;86.64
47260;BME280;32999;52.412;4.890;2022-07-09T11:00:44;102805.13;;;28.88;79.88
47260;BME280;32999;52.412;4.890;2022-07-09T11:05:49;102727.56;;;27.45;83.77
47260;BME280;32999;52.412;4.890;2022-07-09T11:10:52;102708.03;;;26.74;86.03
47260;BME280;32999;52.412;4.890;2022-07-09T11:16:00;102797.63;;;30.00;75.75
47260;BME280;32999;52.412;4.890;2022-07-09T11:21:08;102808.47;;;28.90;78.47
47260;BME280;32999;52.412;4.890;2022-07-09T11:26:13;102801.84;;;30.18;74.51
47260;BME280;32999;52.412;4.890;2022-07-09T11:31:33;102808.78;;;29.68;75.03
47260;BME280;32999;52.412;4.890;2022-07-09T11:36:35;102793.84;;;30.21;71.07
47260;BME280;32999;52.412;4.890;2022-07-09T11:41:52;102815.31;;;30.04;74.91
47260;BME280;32999;52.412;4.890;2022-07-09T11:47:12;102773.44;;;31.69;64.89
47260;BME280;32999;52.412;4.890;2022-07-09T11:52:23;102768.78;;;30.48;66.68
47260;BME280;32999;52.412;4.890;2022-07-09T11:57:37;102761.13;;;30.91;65.89
47260;BME280;32999;52.412;4.890;2022-07-09T12:02:44;102752.47;;;30.11;72.48
47260;BME280;32999;52.412;4.890;2022-07-09T12:07:51;102712.38;;;32.54;60.05
47260;BME280;32999;52.412;4.890;2022-07-09T12:12:53;102679.44;;;33.39;54.61
47260;BME280;32999;52.412;4.890;2022-07-09T12:18:00;102693.16;;;34.11;52.99
47260;BME280;32999;52.412;4.890;2022-07-09T12:23:03;102732.50;;;32.26;56.40
47260;BME280;32999;52.412;4.890;2022-07-09T12:28:12;102700.09;;;30.92;65.11
47260;BME280;32999;52.412;4.890;2022-07-09T12:33:22;102804.25;;;29.99;68.61
47260;BME280;32999;52.412;4.890;2022-07-09T12:38:47;102823.00;;;27.04;90.60
47260;BME280;32999;52.412;4.890;2022-07-09T12:43:51;102783.56;;;28.26;87.05
47260;BME280;32999;52.412;4.890;2022-07-09T12:49:05;102791.97;;;27.37;86.03
47260;BME280;32999;52.412;4.890;2022-07-09T12:54:09;102796.66;;;27.75;81.99
47260;BME280;32999;52.412;4.890;2022-07-09T12:59:11;102709.13;;;28.33;77.91
47260;BME280;32999;52.412;4.890;2022-07-09T13:04:15;102779.59;;;29.35;75.23
47260;BME280;32999;52.412;4.890;2022-07-09T13:09:18;102778.19;;;28.15;73.71
47260;BME280;32999;52.412;4.890;2022-07-09T13:14:20;102669.50;;;28.07;70.09
47260;BME280;32999;52.412;4.890;2022-07-09T13:19:23;102643.06;;;28.28;66.98
47260;BME280;32999;52.412;4.890;2022-07-09T13:24:26;102798.63;;;28.02;72.61
47260;BME280;32999;52.412;4.890;2022-07-09T13:29:29;102824.09;;;26.75;72.55
47260;BME280;32999;52.412;4.890;2022-07-09T13:34:32;102828.56;;;26.24;80.89
47260;BME280;32999;52.412;4.890;2022-07-09T13:39:35;102840.56;;;25.36;82.64
47260;BME280;32999;52.412;4.890;2022-07-09T13:44:37;102824.56;;;24.98;87.14
47260;BME280;32999;52.412;4.890;2022-07-09T13:49:42;102817.69;;;25.19;87.90
47260;BME280;32999;52.412;4.890;2022-07-09T13:54:44;102816.72;;;25.14;85.20
47260;BME280;32999;52.412;4.890;2022-07-09T13:59:46;102823.41;;;24.28;89.29
47260;BME280;32999;52.412;4.890;2022-07-09T14:04:50;102820.38;;;24.66;91.33
47260;BME280;32999;52.412;4.890;2022-07-09T14:10:08;102823.97;;;24.78;88.32
47260;BME280;32999;52.412;4.890;2022-07-09T14:15:13;102830.03;;;24.68;89.83
47260;BME280;32999;52.412;4.890;2022-07-09T14:20:16;102835.22;;;24.58;92.03
47260;BME280;32999;52.412;4.890;2022-07-09T14:25:20;102848.91;;;24.40;91.40
47260;BME280;32999;52.412;4.890;2022-07-09T14:30:22;102848.75;;;24.17;95.72
47260;BME280;32999;52.412;4.890;2022-07-09T14:35:28;102848.22;;;23.90;94.23
47260;BME280;32999;52.412;4.890;2022-07-09T14:40:31;102846.53;;;23.21;95.90
47260;BME280;32999;52.412;4.890;2022-07-09T14:45:37;102831.03;;;23.15;100.00
47260;BME280;32999;52.412;4.890;2022-07-09T14:50:43;102855.81;;;23.13;99.63
47260;BME280;32999;52.412;4.890;2022-07-09T14:55:46;102859.16;;;22.77;100.00
47260;BME280;32999;52.412;4.890;2022-07-09T15:00:50;102847.94;;;22.60;100.00
47260;BME280;32999;52.412;4.890;2022-07-09T15:05:54;102857.19;;;22.53;98.28
47260;BME280;32999;52.412;4.890;2022-07-09T15:10:56;102803.97;;;21.86;100.00
47260;BME280;32999;52.412;4.890;2022-07-09T15:15:58;102754.75;;;21.94;100.00
47260;BME280;32999;52.412;4.890;2022-07-09T15:21:03;102854.22;;;22.61;100.00
47260;BME280;32999;52.412;4.890;2022-07-09T15:26:05;102844.13;;;22.68;100.00
47260;BME280;32999;52.412;4.890;2022-07-09T15:31:07;102855.84;;;22.75;95.92
47260;BME280;32999;52.412;4.890;2022-07-09T15:36:11;102855.34;;;22.91;94.56
47260;BME280;32999;52.412;4.890;2022-07-09T15:41:14;102870.47;;;22.29;98.44
47260;BME280;32999;52.412;4.890;2022-07-09T15:46:17;102843.19;;;22.49;91.19
47260;BME280;32999;52.412;4.890;2022-07-09T15:51:23;102847.19;;;22.40;89.56
47260;BME280;32999;52.412;4.890;2022-07-09T15:56:26;102838.00;;;22.34;85.24
47260;BME280;32999;52.412;4.890;2022-07-09T16:01:28;102848.78;;;21.90;88.52
47260;BME280;32999;52.412;4.890;2022-07-09T16:06:33;102851.09;;;21.80;86.65
47260;BME280;32999;52.412;4.890;2022-07-09T16:11:41;102846.53;;;21.67;85.73
47260;BME280;32999;52.412;4.890;2022-07-09T16:17:00;102861.81;;;21.22;88.64
47260;BME280;32999;52.412;4.890;2022-07-09T16:22:10;102857.00;;;21.30;91.33
47260;BME280;32999;52.412;4.890;2022-07-09T16:27:15;102858.00;;;21.03;94.87
47260;BME280;32999;52.412;4.890;2022-07-09T16:32:18;102853.63;;;21.02;97.39
47260;BME280;32999;52.412;4.890;2022-07-09T16:37:22;102849.03;;;21.02;95.50
47260;BME280;32999;52.412;4.890;2022-07-09T16:42:25;102856.50;;;20.87;96.70
47260;BME280;32999;52.412;4.890;2022-07-09T16:47:30;102884.28;;;20.76;100.00
47260;BME280;32999;52.412;4.890;2022-07-09T16:52:34;102858.72;;;20.57;100.00
47260;BME280;32999;52.412;4.890;2022-07-09T16:57:36;102862.78;;;20.94;100.00
47260;BME280;32999;52.412;4.890;2022-07-09T17:02:37;102853.19;;;21.12;100.00
47260;BME280;32999;52.412;4.890;2022-07-09T17:07:41;102813.75;;;20.55;100.00
47260;BME280;32999;52.412;4.890;2022-07-09T17:12:43;102848.53;;;20.79;100.00
47260;BME280;32999;52.412;4.890;2022-07-09T17:17:46;102736.19;;;19.85;100.00
47260;BME280;32999;52.412;4.890;2022-07-09T17:22:50;102847.84;;;20.16;100.00
47260;BME280;32999;52.412;4.890;2022-07-09T17:27:57;102834.78;;;19.92;100.00
47260;BME280;32999;52.412;4.890;2022-07-09T17:33:00;102843.81;;;19.99;100.00
47260;BME280;32999;52.412;4.890;2022-07-09T17:38:03;102838.00;;;20.09;100.00
47260;BME280;32999;52.412;4.890;2022-07-09T17:43:05;102823.81;;;20.13;100.00
47260;BME280;32999;52.412;4.890;2022-07-09T17:48:29;102833.88;;;19.85;100.00
47260;BME280;32999;52.412;4.890;2022-07-09T17:58:54;102838.72;;;19.55;100.00
47260;BME280;32999;52.412;4.890;2022-07-09T18:03:55;102845.59;;;19.36;100.00
47260;BME280;32999;52.412;4.890;2022-07-09T18:08:58;102837.19;;;19.24;100.00
47260;BME280;32999;52.412;4.890;2022-07-09T18:14:04;102830.78;;;19.11;100.00
47260;BME280;32999;52.412;4.890;2022-07-09T18:19:06;102813.81;;;18.81;100.00
47260;BME280;32999;52.412;4.890;2022-07-09T18:24:09;102840.28;;;18.79;100.00
47260;BME280;32999;52.412;4.890;2022-07-09T18:29:11;102825.81;;;18.72;100.00
47260;BME280;32999;52.412;4.890;2022-07-09T18:34:14;102843.13;;;18.92;100.00
47260;BME280;32999;52.412;4.890;2022-07-09T18:39:17;102833.50;;;18.89;100.00
47260;BME280;32999;52.412;4.890;2022-07-09T18:44:20;102875.91;;;18.82;100.00
47260;BME280;32999;52.412;4.890;2022-07-09T18:49:23;102861.03;;;18.93;100.00
47260;BME280;32999;52.412;4.890;2022-07-09T18:54:30;102820.19;;;18.58;100.00
47260;BME280;32999;52.412;4.890;2022-07-09T18:59:32;102887.94;;;18.73;100.00
47260;BME280;32999;52.412;4.890;2022-07-09T19:04:34;102885.97;;;18.67;100.00
47260;BME280;32999;52.412;4.890;2022-07-09T19:09:40;102779.44;;;17.94;100.00
47260;BME280;32999;52.412;4.890;2022-07-09T19:14:42;102875.28;;;18.29;100.00
47260;BME280;32999;52.412;4.890;2022-07-09T19:19:43;102857.63;;;18.04;100.00
47260;BME280;32999;52.412;4.890;2022-07-09T19:24:50;102875.34;;;18.21;100.00
47260;BME280;32999;52.412;4.890;2022-07-09T19:29:51;102876.75;;;18.17;100.00
47260;BME280;32999;52.412;4.890;2022-07-09T19:34:53;102875.16;;;18.23;100.00
47260;BME280;32999;52.412;4.890;2022-07-09T19:39:57;102812.56;;;17.82;100.00
47260;BME280;32999;52.412;4.890;2022-07-09T19:44:59;102845.13;;;18.18;100.00
47260;BME280;32999;52.412;4.890;2022-07-09T19:50:00;102897.00;;;18.36;100.00
47260;BME280;32999;52.412;4.890;2022-07-09T19:55:04;102869.50;;;18.03;100.00
47260;BME280;32999;52.412;4.890;2022-07-09T20:00:07;102891.22;;;18.10;100.00
47260;BME280;32999;52.412;4.890;2022-07-09T20:05:09;102893.06;;;17.94;100.00
47260;BME280;32999;52.412;4.890;2022-07-09T20:10:12;102809.41;;;17.41;100.00
47260;BME280;32999;52.412;4.890;2022-07-09T20:15:14;102892.78;;;17.75;100.00
47260;BME280;32999;52.412;4.890;2022-07-09T20:20:16;102829.88;;;17.35;100.00
47260;BME280;32999;52.412;4.890;2022-07-09T20:25:19;102894.47;;;17.76;100.00
47260;BME280;32999;52.412;4.890;2022-07-09T20:30:20;102856.19;;;17.41;100.00
47260;BME280;32999;52.412;4.890;2022-07-09T20:35:22;102894.53;;;17.82;100.00
47260;BME280;32999;52.412;4.890;2022-07-09T20:40:26;102759.50;;;17.14;100.00
47260;BME280;32999;52.412;4.890;2022-07-09T20:45:27;102780.22;;;17.36;100.00
47260;BME280;32999;52.412;4.890;2022-07-09T20:50:29;102788.91;;;17.61;100.00
47260;BME280;32999;52.412;4.890;2022-07-09T20:55:32;102808.03;;;17.59;100.00
47260;BME280;32999;52.412;4.890;2022-07-09T21:00:34;102881.06;;;18.26;100.00
47260;BME280;32999;52.412;4.890;2022-07-09T21:05:36;102863.78;;;17.98;100.00
47260;BME280;32999;52.412;4.890;2022-07-09T21:10:39;102860.25;;;17.97;100.00
47260;BME280;32999;52.412;4.890;2022-07-09T21:15:47;102887.75;;;18.16;100.00
47260;BME280;32999;52.412;4.890;2022-07-09T21:20:50;102880.22;;;18.26;100.00
47260;BME280;32999;52.412;4.890;2022-07-09T21:25:59;102879.00;;;18.28;100.00
47260;BME280;32999;52.412;4.890;2022-07-09T21:31:00;102817.97;;;17.96;100.00
47260;BME280;32999;52.412;4.890;2022-07-09T21:36:02;102876.00;;;18.38;100.00
47260;BME280;32999;52.412;4.890;2022-07-09T21:41:06;102831.50;;;18.11;100.00
47260;BME280;32999;52.412;4.890;2022-07-09T21:46:08;102858.53;;;18.41;100.00
47260;BME280;32999;52.412;4.890;2022-07-09T21:51:10;102738.34;;;17.70;100.00
47260;BME280;32999;52.412;4.890;2022-07-09T21:56:21;102809.28;;;18.30;100.00
47260;BME280;32999;52.412;4.890;2022-07-09T22:01:25;102868.69;;;18.68;100.00
47260;BME280;32999;52.412;4.890;2022-07-09T22:06:27;102866.06;;;18.75;100.00
47260;BME280;32999;52.412;4.890;2022-07-09T22:11:31;102867.00;;;18.67;100.00
47260;BME280;32999;52.412;4.890;2022-07-09T22:16:43;102862.91;;;18.71;100.00
47260;BME280;32999;52.412;4.890;2022-07-09T22:21:44;102847.50;;;18.42;100.00
47260;BME280;32999;52.412;4.890;2022-07-09T22:26:48;102855.59;;;18.57;100.00
47260;BME280;32999;52.412;4.890;2022-07-09T22:31:49;102866.38;;;18.50;100.00
47260;BME280;32999;52.412;4.890;2022-07-09T22:36:58;102866.78;;;18.18;100.00
47260;BME280;32999;52.412;4.890;2022-07-09T22:42:07;102854.81;;;18.27;100.00
47260;BME280;32999;52.412;4.890;2022-07-09T22:47:09;102863.00;;;18.33;100.00
47260;BME280;32999;52.412;4.890;2022-07-09T22:52:11;102850.41;;;18.41;100.00
47260;BME280;32999;52.412;4.890;2022-07-09T22:57:17;102795.97;;;17.99;100.00
47260;BME280;32999;52.412;4.890;2022-07-09T23:02:19;102845.78;;;18.20;100.00
47260;BME280;32999;52.412;4.890;2022-07-09T23:07:21;102841.41;;;18.04;100.00
47260;BME280;32999;52.412;4.890;2022-07-09T23:12:45;102844.00;;;18.12;100.00
47260;BME280;32999;52.412;4.890;2022-07-09T23:17:46;102835.59;;;18.22;100.00
47260;BME280;32999;52.412;4.890;2022-07-09T23:22:48;102834.91;;;18.34;100.00
47260;BME280;32999;52.412;4.890;2022-07-09T23:27:51;102809.38;;;18.22;100.00
47260;BME280;32999;52.412;4.890;2022-07-09T23:32:52;102833.78;;;18.44;100.00
47260;BME280;32999;52.412;4.890;2022-07-09T23:37:56;102820.53;;;18.49;100.00
47260;BME280;32999;52.412;4.890;2022-07-09T23:42:59;102806.38;;;18.17;100.00
47260;BME280;32999;52.412;4.890;2022-07-09T23:48:01;102816.47;;;18.23;100.00
47260;BME280;32999;52.412;4.890;2022-07-09T23:53:02;102791.47;;;18.07;100.00
47260;BME280;32999;52.412;4.890;2022-07-09T23:58:05;102687.78;;;17.55;100.00
